sensor_id;sensor_type;location;lat;lon;timestamp;pressure;altitude;pressure_sealevel;temperature;humidity
74680;BME280;63211;48.548;2.704;2023-04-25T00:01:55;100408.25;;;18.39;54.83
74680;BME280;63211;48.548;2.704;2023-04-25T00:04:23;100395.91;;;18.37;54.43
74680;BME280;63211;48.548;2.704;2023-04-25T00:06:50;100392.81;;;18.33;53.88
74680;BME280;63211;48.548;2.704;2023-04-25T00:09:17;100386.75;;;18.31;54.40
74680;BME280;63211;48.548;2.704;2023-04-25T00:11:45;100388.88;;;18.29;54.01
74680;BME280;63211;48.548;2.704;2023-04-25T00:14:12;100379.06;;;18.28;54.63
74680;BME280;63211;48.548;2.704;2023-04-25T00:16:38;100382.03;;;18.27;54.72
74680;BME280;63211;48.548;2.704;2023-04-25T00:19:06;100378.47;;;18.26;54.07
74680;BME280;63211;48.548;2.704;2023-04-25T00:21:33;100387.94;;;18.24;54.42
74680;BME280;63211;48.548;2.704;2023-04-25T00:24:00;100378.94;;;18.23;53.84
74680;BME280;63211;48.548;2.704;2023-04-25T00:26:27;100383.53;;;18.23;55.05
74680;BME280;63211;48.548;2.704;2023-04-25T00:28:55;100370.16;;;18.21;54.79
74680;BME280;63211;48.548;2.704;2023-04-25T00:31:22;100379.16;;;18.22;55.05
74680;BME280;63211;48.548;2.704;2023-04-25T00:33:48;100380.44;;;18.19;55.36
74680;BME280;63211;48.548;2.704;2023-04-25T00:36:15;100385.28;;;18.17;55.00
74680;BME280;63211;48.548;2.704;2023-04-25T00:38:42;100377.34;;;18.15;55.32
74680;BME280;63211;48.548;2.704;2023-04-25T00:41:08;100388.47;;;18.14;55.59
74680;BME280;63211;48.548;2.704;2023-04-25T00:43:36;100392.88;;;18.15;55.17
74680;BME280;63211;48.548;2.704;2023-04-25T00:46:05;100392.25;;;18.13;55.03
74680;BME280;63211;48.548;2.704;2023-04-25T00:48:31;100391.44;;;18.12;55.24
74680;BME280;63211;48.548;2.704;2023-04-25T00:50:59;100384.91;;;18.13;55.21
74680;BME280;63211;48.548;2.704;2023-04-25T00:53:27;100387.34;;;18.22;53.55
74680;BME280;63211;48.548;2.704;2023-04-25T00:55:54;100386.97;;;18.30;53.74
74680;BME280;63211;48.548;2.704;2023-04-25T00:58:22;100371.34;;;18.25;53.47
74680;BME280;63211;48.548;2.704;2023-04-25T01:00:50;100380.84;;;18.34;52.21
74680;BME280;63211;48.548;2.704;2023-04-25T01:03:19;100384.16;;;18.36;51.28
74680;BME280;63211;48.548;2.704;2023-04-25T01:05:46;100259.56;;;17.60;51.01
74680;BME280;63211;48.548;2.704;2023-04-25T01:08:13;100378.63;;;18.43;53.03
74680;BME280;63211;48.548;2.704;2023-04-25T01:10:40;100384.91;;;18.43;53.21
74680;BME280;63211;48.548;2.704;2023-04-25T01:13:07;100381.81;;;18.40;53.80
74680;BME280;63211;48.548;2.704;2023-04-25T01:15:34;100380.38;;;18.37;53.96
74680;BME280;63211;48.548;2.704;2023-04-25T01:18:02;100378.13;;;18.34;54.22
74680;BME280;63211;48.548;2.704;2023-04-25T01:20:32;100374.56;;;18.34;54.12
74680;BME280;63211;48.548;2.704;2023-04-25T01:23:00;100374.44;;;18.29;54.04
74680;BME280;63211;48.548;2.704;2023-04-25T01:25:28;100383.19;;;18.31;54.49
74680;BME280;63211;48.548;2.704;2023-04-25T01:27:55;100384.84;;;18.32;54.62
74680;BME280;63211;48.548;2.704;2023-04-25T01:30:23;100383.19;;;18.31;54.58
74680;BME280;63211;48.548;2.704;2023-04-25T01:32:50;100369.00;;;18.29;54.57
74680;BME280;63211;48.548;2.704;2023-04-25T01:35:17;100375.25;;;18.29;54.76
74680;BME280;63211;48.548;2.704;2023-04-25T01:37:45;100384.03;;;18.31;54.84
74680;BME280;63211;48.548;2.704;2023-04-25T01:40:13;100386.16;;;18.29;54.83
74680;BME280;63211;48.548;2.704;2023-04-25T01:42:41;100383.69;;;18.28;54.81
74680;BME280;63211;48.548;2.704;2023-04-25T01:45:10;100385.59;;;18.27;54.88
74680;BME280;63211;48.548;2.704;2023-04-25T01:47:37;100386.88;;;18.25;54.96
74680;BME280;63211;48.548;2.704;2023-04-25T01:50:06;100380.81;;;18.23;55.05
74680;BME280;63211;48.548;2.704;2023-04-25T01:52:33;100382.94;;;18.20;55.08
74680;BME280;63211;48.548;2.704;2023-04-25T01:55:01;100363.94;;;18.02;55.09
74680;BME280;63211;48.548;2.704;2023-04-25T01:57:29;100388.84;;;18.17;55.12
74680;BME280;63211;48.548;2.704;2023-04-25T01:59:59;100393.09;;;18.13;55.39
74680;BME280;63211;48.548;2.704;2023-04-25T02:02:25;100395.59;;;18.15;55.33
74680;BME280;63211;48.548;2.704;2023-04-25T02:04:52;100392.63;;;18.16;55.43
74680;BME280;63211;48.548;2.704;2023-04-25T02:07:19;100395.97;;;18.18;55.09
74680;BME280;63211;48.548;2.704;2023-04-25T02:09:46;100393.38;;;18.24;54.94
74680;BME280;63211;48.548;2.704;2023-04-25T02:12:13;100384.97;;;18.25;54.94
74680;BME280;63211;48.548;2.704;2023-04-25T02:14:41;100391.97;;;18.33;54.69
74680;BME280;63211;48.548;2.704;2023-04-25T02:17:07;100392.34;;;18.36;53.08
74680;BME280;63211;48.548;2.704;2023-04-25T02:19:34;100398.53;;;18.43;52.83
74680;BME280;63211;48.548;2.704;2023-04-25T02:22:01;100390.34;;;18.43;52.19
74680;BME280;63211;48.548;2.704;2023-04-25T02:24:27;100402.22;;;18.49;52.60
74680;BME280;63211;48.548;2.704;2023-04-25T02:26:54;100400.56;;;18.48;53.24
74680;BME280;63211;48.548;2.704;2023-04-25T02:29:21;100399.38;;;18.44;53.54
74680;BME280;63211;48.548;2.704;2023-04-25T02:31:49;100394.38;;;18.41;53.72
74680;BME280;63211;48.548;2.704;2023-04-25T02:34:16;100399.47;;;18.37;53.87
74680;BME280;63211;48.548;2.704;2023-04-25T02:36:42;100322.78;;;17.92;53.98
74680;BME280;63211;48.548;2.704;2023-04-25T02:39:09;100387.97;;;18.35;53.93
74680;BME280;63211;48.548;2.704;2023-04-25T02:41:36;100382.72;;;18.34;54.10
74680;BME280;63211;48.548;2.704;2023-04-25T02:44:03;100390.91;;;18.34;54.33
74680;BME280;63211;48.548;2.704;2023-04-25T02:46:29;100391.97;;;18.33;54.46
74680;BME280;63211;48.548;2.704;2023-04-25T02:48:57;100384.03;;;18.31;54.56
74680;BME280;63211;48.548;2.704;2023-04-25T02:51:24;100387.72;;;18.25;54.51
74680;BME280;63211;48.548;2.704;2023-04-25T02:53:51;100393.25;;;18.30;54.64
74680;BME280;63211;48.548;2.704;2023-04-25T02:56:18;100401.44;;;18.30;54.72
74680;BME280;63211;48.548;2.704;2023-04-25T02:58:45;100406.06;;;18.30;54.66
74680;BME280;63211;48.548;2.704;2023-04-25T03:01:11;100397.31;;;18.28;54.47
74680;BME280;63211;48.548;2.704;2023-04-25T03:03:38;100396.47;;;18.27;54.61
74680;BME280;63211;48.548;2.704;2023-04-25T03:06:06;100401.34;;;18.25;54.79
74680;BME280;63211;48.548;2.704;2023-04-25T03:08:32;100399.91;;;18.23;54.71
74680;BME280;63211;48.548;2.704;2023-04-25T03:10:59;100400.34;;;18.19;54.68
74680;BME280;63211;48.548;2.704;2023-04-25T03:13:26;100396.78;;;18.19;54.99
74680;BME280;63211;48.548;2.704;2023-04-25T03:15:55;100396.19;;;18.17;54.93
74680;BME280;63211;48.548;2.704;2023-04-25T03:18:21;100397.25;;;18.16;55.13
74680;BME280;63211;48.548;2.704;2023-04-25T03:20:48;100398.31;;;18.15;54.92
74680;BME280;63211;48.548;2.704;2023-04-25T03:23:16;100402.25;;;18.19;55.40
74680;BME280;63211;48.548;2.704;2023-04-25T03:25:42;100398.22;;;18.22;54.36
74680;BME280;63211;48.548;2.704;2023-04-25T03:28:09;100401.94;;;18.27;54.42
74680;BME280;63211;48.548;2.704;2023-04-25T03:30:35;100396.81;;;18.31;54.04
74680;BME280;63211;48.548;2.704;2023-04-25T03:33:02;100401.13;;;18.38;52.36
74680;BME280;63211;48.548;2.704;2023-04-25T03:35:29;100403.16;;;18.43;52.13
74680;BME280;63211;48.548;2.704;2023-04-25T03:37:55;100410.63;;;18.47;52.00
74680;BME280;63211;48.548;2.704;2023-04-25T03:40:23;100402.81;;;18.51;52.28
74680;BME280;63211;48.548;2.704;2023-04-25T03:42:50;100399.25;;;18.50;52.98
74680;BME280;63211;48.548;2.704;2023-04-25T03:45:17;100402.69;;;18.46;53.18
74680;BME280;63211;48.548;2.704;2023-04-25T03:47:43;100402.31;;;18.42;53.42
74680;BME280;63211;48.548;2.704;2023-04-25T03:50:10;100400.28;;;18.38;53.58
74680;BME280;63211;48.548;2.704;2023-04-25T03:52:36;100410.38;;;18.37;53.83
74680;BME280;63211;48.548;2.704;2023-04-25T03:55:04;100419.59;;;18.36;53.97
74680;BME280;63211;48.548;2.704;2023-04-25T03:57:32;100408.09;;;18.34;53.99
74680;BME280;63211;48.548;2.704;2023-04-25T03:59:58;100410.00;;;18.34;53.98
74680;BME280;63211;48.548;2.704;2023-04-25T04:02:25;100409.38;;;18.32;54.24
74680;BME280;63211;48.548;2.704;2023-04-25T04:04:52;100416.50;;;18.33;54.02
74680;BME280;63211;48.548;2.704;2023-04-25T04:07:18;100419.47;;;18.31;54.34
74680;BME280;63211;48.548;2.704;2023-04-25T04:09:45;100417.78;;;18.30;54.30
74680;BME280;63211;48.548;2.704;2023-04-25T04:12:11;100413.41;;;18.29;54.43
74680;BME280;63211;48.548;2.704;2023-04-25T04:14:40;100413.91;;;18.26;54.61
74680;BME280;63211;48.548;2.704;2023-04-25T04:17:06;100414.94;;;18.25;54.36
74680;BME280;63211;48.548;2.704;2023-04-25T04:19:33;100421.47;;;18.24;54.58
74680;BME280;63211;48.548;2.704;2023-04-25T04:22:00;100418.75;;;18.24;54.59
74680;BME280;63211;48.548;2.704;2023-04-25T04:24:26;100417.91;;;18.24;54.41
74680;BME280;63211;48.548;2.704;2023-04-25T04:26:53;100418.97;;;18.23;54.56
74680;BME280;63211;48.548;2.704;2023-04-25T04:29:20;100416.09;;;18.17;54.46
74680;BME280;63211;48.548;2.704;2023-04-25T04:31:49;100422.38;;;18.18;54.74
74680;BME280;63211;48.548;2.704;2023-04-25T04:34:16;100429.13;;;18.15;54.77
74680;BME280;63211;48.548;2.704;2023-04-25T04:36:43;100434.34;;;18.17;54.57
74680;BME280;63211;48.548;2.704;2023-04-25T04:39:10;100438.50;;;18.19;54.55
74680;BME280;63211;48.548;2.704;2023-04-25T04:41:36;100440.53;;;18.24;54.21
74680;BME280;63211;48.548;2.704;2023-04-25T04:44:03;100450.75;;;18.29;54.16
74680;BME280;63211;48.548;2.704;2023-04-25T04:46:31;100448.16;;;18.34;52.22
74680;BME280;63211;48.548;2.704;2023-04-25T04:49:04;100442.59;;;18.40;51.02
74680;BME280;63211;48.548;2.704;2023-04-25T04:51:30;100446.53;;;18.44;51.58
74680;BME280;63211;48.548;2.704;2023-04-25T04:53:58;100438.81;;;18.41;51.42
74680;BME280;63211;48.548;2.704;2023-04-25T04:56:27;100449.97;;;18.51;51.67
74680;BME280;63211;48.548;2.704;2023-04-25T04:58:54;100451.88;;;18.51;52.50
74680;BME280;63211;48.548;2.704;2023-04-25T05:01:21;100463.28;;;18.48;52.79
74680;BME280;63211;48.548;2.704;2023-04-25T05:03:48;100471.31;;;18.43;52.87
74680;BME280;63211;48.548;2.704;2023-04-25T05:06:16;100470.94;;;18.39;53.18
74680;BME280;63211;48.548;2.704;2023-04-25T05:08:43;100475.78;;;18.37;53.38
74680;BME280;63211;48.548;2.704;2023-04-25T05:11:10;100479.19;;;18.33;53.33
74680;BME280;63211;48.548;2.704;2023-04-25T05:13:36;100484.41;;;18.34;53.45
74680;BME280;63211;48.548;2.704;2023-04-25T05:16:03;100486.31;;;18.34;53.54
74680;BME280;63211;48.548;2.704;2023-04-25T05:18:30;100493.66;;;18.33;53.50
74680;BME280;63211;48.548;2.704;2023-04-25T05:20:56;100494.34;;;18.29;53.64
74680;BME280;63211;48.548;2.704;2023-04-25T05:23:24;100511.28;;;18.31;53.85
74680;BME280;63211;48.548;2.704;2023-04-25T05:25:52;100511.78;;;18.28;53.94
74680;BME280;63211;48.548;2.704;2023-04-25T05:28:19;100520.78;;;18.28;53.95
74680;BME280;63211;48.548;2.704;2023-04-25T05:30:46;100519.94;;;18.28;53.98
74680;BME280;63211;48.548;2.704;2023-04-25T05:33:13;100523.97;;;18.25;53.80
74680;BME280;63211;48.548;2.704;2023-04-25T05:35:39;100524.19;;;18.24;53.98
74680;BME280;63211;48.548;2.704;2023-04-25T05:38:06;100527.97;;;18.23;54.04
74680;BME280;63211;48.548;2.704;2023-04-25T05:40:34;100539.09;;;18.21;54.12
74680;BME280;63211;48.548;2.704;2023-04-25T05:43:01;100537.44;;;18.20;54.27
74680;BME280;63211;48.548;2.704;2023-04-25T05:45:27;100540.38;;;18.18;54.34
74680;BME280;63211;48.548;2.704;2023-04-25T05:47:54;100538.72;;;18.17;54.13
74680;BME280;63211;48.548;2.704;2023-04-25T05:50:21;100543.09;;;18.18;54.07
74680;BME280;63211;48.548;2.704;2023-04-25T05:52:47;100535.16;;;18.17;54.04
74680;BME280;63211;48.548;2.704;2023-04-25T05:55:14;100532.28;;;18.12;53.87
74680;BME280;63211;48.548;2.704;2023-04-25T05:57:42;100541.59;;;18.23;53.63
74680;BME280;63211;48.548;2.704;2023-04-25T06:00:12;100538.66;;;18.24;53.91
74680;BME280;63211;48.548;2.704;2023-04-25T06:02:40;100530.59;;;18.29;53.81
74680;BME280;63211;48.548;2.704;2023-04-25T06:05:08;100539.69;;;18.41;53.83
74680;BME280;63211;48.548;2.704;2023-04-25T06:07:34;100547.56;;;18.49;53.70
74680;BME280;63211;48.548;2.704;2023-04-25T06:10:01;100549.19;;;18.50;53.25
74680;BME280;63211;48.548;2.704;2023-04-25T06:12:31;100551.56;;;18.47;53.47
74680;BME280;63211;48.548;2.704;2023-04-25T06:14:59;100553.06;;;18.43;53.64
74680;BME280;63211;48.548;2.704;2023-04-25T06:17:26;100557.31;;;18.39;53.50
74680;BME280;63211;48.548;2.704;2023-04-25T06:19:52;100552.31;;;18.36;53.57
74680;BME280;63211;48.548;2.704;2023-04-25T06:22:19;100549.81;;;18.34;53.30
74680;BME280;63211;48.548;2.704;2023-04-25T06:24:45;100558.22;;;18.33;53.49
74680;BME280;63211;48.548;2.704;2023-04-25T06:27:12;100555.72;;;18.31;53.50
74680;BME280;63211;48.548;2.704;2023-04-25T06:29:38;100556.78;;;18.30;53.54
74680;BME280;63211;48.548;2.704;2023-04-25T06:32:06;100553.47;;;18.28;53.58
74680;BME280;63211;48.548;2.704;2023-04-25T06:34:33;100555.38;;;18.28;53.59
74680;BME280;63211;48.548;2.704;2023-04-25T06:37:00;100550.38;;;18.25;53.35
74680;BME280;63211;48.548;2.704;2023-04-25T06:39:26;100551.44;;;18.24;53.68
74680;BME280;63211;48.548;2.704;2023-04-25T06:41:53;100556.28;;;18.22;53.59
74680;BME280;63211;48.548;2.704;2023-04-25T06:44:19;100554.63;;;18.20;53.49
74680;BME280;63211;48.548;2.704;2023-04-25T06:46:48;100561.72;;;18.22;53.90
74680;BME280;63211;48.548;2.704;2023-04-25T06:49:16;100555.66;;;18.19;54.11
74680;BME280;63211;48.548;2.704;2023-04-25T06:51:42;100560.28;;;18.19;54.07
74680;BME280;63211;48.548;2.704;2023-04-25T06:54:09;100559.69;;;18.17;54.16
74680;BME280;63211;48.548;2.704;2023-04-25T06:56:36;100558.00;;;18.16;54.50
74680;BME280;63211;48.548;2.704;2023-04-25T06:59:02;100556.56;;;18.13;53.90
74680;BME280;63211;48.548;2.704;2023-04-25T07:01:29;100557.63;;;18.12;54.08
74680;BME280;63211;48.548;2.704;2023-04-25T07:03:56;100568.53;;;18.12;54.27
74680;BME280;63211;48.548;2.704;2023-04-25T07:06:24;100571.03;;;18.14;54.27
74680;BME280;63211;48.548;2.704;2023-04-25T07:08:52;100575.19;;;18.16;53.97
74680;BME280;63211;48.548;2.704;2023-04-25T07:11:18;100561.97;;;18.20;53.85
74680;BME280;63211;48.548;2.704;2023-04-25T07:13:45;100570.28;;;18.25;53.48
74680;BME280;63211;48.548;2.704;2023-04-25T07:16:12;100560.44;;;18.24;53.06
74680;BME280;63211;48.548;2.704;2023-04-25T07:18:38;100578.53;;;18.37;52.45
74680;BME280;63211;48.548;2.704;2023-04-25T07:21:05;100543.94;;;18.19;52.27
74680;BME280;63211;48.548;2.704;2023-04-25T07:23:33;100587.22;;;18.45;52.32
74680;BME280;63211;48.548;2.704;2023-04-25T07:25:59;100591.84;;;18.45;52.85
74680;BME280;63211;48.548;2.704;2023-04-25T07:28:26;100597.16;;;18.40;52.61
74680;BME280;63211;48.548;2.704;2023-04-25T07:30:53;100598.44;;;18.37;52.79
74680;BME280;63211;48.548;2.704;2023-04-25T07:33:19;100597.00;;;18.35;52.70
74680;BME280;63211;48.548;2.704;2023-04-25T07:35:46;100605.63;;;18.32;52.72
74680;BME280;63211;48.548;2.704;2023-04-25T07:38:13;100613.19;;;18.30;52.53
74680;BME280;63211;48.548;2.704;2023-04-25T07:40:41;100613.44;;;18.28;52.77
74680;BME280;63211;48.548;2.704;2023-04-25T07:43:07;100619.13;;;18.27;52.72
74680;BME280;63211;48.548;2.704;2023-04-25T07:45:34;100624.34;;;18.28;52.58
74680;BME280;63211;48.548;2.704;2023-04-25T07:48:01;100621.34;;;18.30;52.37
74680;BME280;63211;48.548;2.704;2023-04-25T07:50:28;100626.28;;;18.39;52.14
74680;BME280;63211;48.548;2.704;2023-04-25T07:52:54;100627.50;;;18.43;52.17
74680;BME280;63211;48.548;2.704;2023-04-25T07:55:21;100629.41;;;18.43;52.08
74680;BME280;63211;48.548;2.704;2023-04-25T07:57:49;100623.94;;;18.43;52.10
74680;BME280;63211;48.548;2.704;2023-04-25T08:00:16;100639.47;;;18.42;52.31
74680;BME280;63211;48.548;2.704;2023-04-25T08:02:43;100639.25;;;18.44;51.90
74680;BME280;63211;48.548;2.704;2023-04-25T08:05:09;100646.59;;;18.43;51.77
74680;BME280;63211;48.548;2.704;2023-04-25T08:07:39;100658.34;;;18.44;51.70
74680;BME280;63211;48.548;2.704;2023-04-25T08:10:07;100653.34;;;18.41;51.83
74680;BME280;63211;48.548;2.704;2023-04-25T08:12:33;100665.44;;;18.45;51.74
74680;BME280;63211;48.548;2.704;2023-04-25T08:15:02;100670.91;;;18.45;51.79
74680;BME280;63211;48.548;2.704;2023-04-25T08:17:28;100672.81;;;18.44;51.56
74680;BME280;63211;48.548;2.704;2023-04-25T08:19:55;100670.06;;;18.44;51.81
74680;BME280;63211;48.548;2.704;2023-04-25T08:22:22;100672.81;;;18.44;51.95
74680;BME280;63211;48.548;2.704;2023-04-25T08:24:48;100675.69;;;18.49;51.64
74680;BME280;63211;48.548;2.704;2023-04-25T08:27:15;100673.31;;;18.53;51.24
74680;BME280;63211;48.548;2.704;2023-04-25T08:29:42;100670.56;;;18.60;51.64
74680;BME280;63211;48.548;2.704;2023-04-25T08:32:10;100676.84;;;18.60;51.16
74680;BME280;63211;48.548;2.704;2023-04-25T08:34:36;100682.06;;;18.62;51.37
74680;BME280;63211;48.548;2.704;2023-04-25T08:37:04;100688.13;;;18.64;51.40
74680;BME280;63211;48.548;2.704;2023-04-25T08:39:31;100682.44;;;18.65;51.19
74680;BME280;63211;48.548;2.704;2023-04-25T08:41:57;100689.56;;;18.66;51.06
74680;BME280;63211;48.548;2.704;2023-04-25T08:44:24;100698.97;;;18.70;51.37
74680;BME280;63211;48.548;2.704;2023-04-25T08:46:52;100697.66;;;18.73;51.15
74680;BME280;63211;48.548;2.704;2023-04-25T08:49:20;100701.22;;;18.73;51.32
74680;BME280;63211;48.548;2.704;2023-04-25T08:51:47;100698.50;;;18.73;51.44
74680;BME280;63211;48.548;2.704;2023-04-25T08:54:15;100704.56;;;18.75;51.08
74680;BME280;63211;48.548;2.704;2023-04-25T08:56:45;100713.56;;;18.76;51.03
74680;BME280;63211;48.548;2.704;2023-04-25T08:59:14;100716.69;;;18.79;51.41
74680;BME280;63211;48.548;2.704;2023-04-25T09:01:40;100733.19;;;18.84;51.08
74680;BME280;63211;48.548;2.704;2023-04-25T09:04:07;100731.53;;;18.83;51.43
74680;BME280;63211;48.548;2.704;2023-04-25T09:06:35;100738.81;;;18.90;51.26
74680;BME280;63211;48.548;2.704;2023-04-25T09:09:03;100734.03;;;18.85;51.59
74680;BME280;63211;48.548;2.704;2023-04-25T09:11:31;100744.13;;;18.84;51.82
74680;BME280;63211;48.548;2.704;2023-04-25T09:14:11;100742.91;;;18.80;51.45
74680;BME280;63211;48.548;2.704;2023-04-25T09:16:57;100740.00;;;18.75;51.31
74680;BME280;63211;48.548;2.704;2023-04-25T09:19:26;100754.25;;;18.77;51.41
74680;BME280;63211;48.548;2.704;2023-04-25T09:21:55;100752.97;;;18.80;51.33
74680;BME280;63211;48.548;2.704;2023-04-25T09:24:30;100739.78;;;18.77;51.59
74680;BME280;63211;48.548;2.704;2023-04-25T09:26:57;100744.34;;;18.83;51.44
74680;BME280;63211;48.548;2.704;2023-04-25T09:29:29;100764.19;;;18.90;51.37
74680;BME280;63211;48.548;2.704;2023-04-25T09:32:10;100754.81;;;18.86;51.44
74680;BME280;63211;48.548;2.704;2023-04-25T09:34:39;100770.22;;;18.92;51.35
74680;BME280;63211;48.548;2.704;2023-04-25T09:37:08;100776.16;;;18.89;51.06
74680;BME280;63211;48.548;2.704;2023-04-25T09:39:36;100780.41;;;18.85;51.25
74680;BME280;63211;48.548;2.704;2023-04-25T09:42:03;100746.91;;;18.60;51.51
74680;BME280;63211;48.548;2.704;2023-04-25T09:44:30;100768.56;;;18.73;51.44
74680;BME280;63211;48.548;2.704;2023-04-25T09:46:57;100779.41;;;18.79;51.40
74680;BME280;63211;48.548;2.704;2023-04-25T09:49:25;100779.84;;;18.76;51.59
74680;BME280;63211;48.548;2.704;2023-04-25T09:51:55;100793.06;;;18.79;51.33
74680;BME280;63211;48.548;2.704;2023-04-25T09:54:24;100785.69;;;18.80;51.23
74680;BME280;63211;48.548;2.704;2023-04-25T09:56:52;100786.97;;;18.77;51.20
74680;BME280;63211;48.548;2.704;2023-04-25T09:59:20;100790.94;;;18.81;51.00
74680;BME280;63211;48.548;2.704;2023-04-25T10:01:48;100798.28;;;18.81;50.99
74680;BME280;63211;48.548;2.704;2023-04-25T10:04:19;100789.72;;;18.77;51.22
74680;BME280;63211;48.548;2.704;2023-04-25T10:06:48;100788.22;;;18.81;51.18
74680;BME280;63211;48.548;2.704;2023-04-25T10:09:16;100801.00;;;18.81;51.25
74680;BME280;63211;48.548;2.704;2023-04-25T10:11:45;100757.34;;;18.63;50.74
74680;BME280;63211;48.548;2.704;2023-04-25T10:14:13;100792.16;;;18.85;51.10
74680;BME280;63211;48.548;2.704;2023-04-25T10:16:41;100804.06;;;18.91;50.98
74680;BME280;63211;48.548;2.704;2023-04-25T10:19:12;100803.81;;;18.93;50.98
74680;BME280;63211;48.548;2.704;2023-04-25T10:21:46;100809.66;;;18.96;50.93
74680;BME280;63211;48.548;2.704;2023-04-25T10:24:14;100803.59;;;18.94;50.52
74680;BME280;63211;48.548;2.704;2023-04-25T10:26:43;100818.06;;;18.95;50.65
74680;BME280;63211;48.548;2.704;2023-04-25T10:29:11;100822.22;;;18.97;50.79
74680;BME280;63211;48.548;2.704;2023-04-25T10:31:45;100818.22;;;19.00;50.96
74680;BME280;63211;48.548;2.704;2023-04-25T10:34:12;100826.56;;;19.05;50.61
74680;BME280;63211;48.548;2.704;2023-04-25T10:36:39;100823.84;;;19.05;50.85
74680;BME280;63211;48.548;2.704;2023-04-25T10:39:06;100829.75;;;19.02;50.76
74680;BME280;63211;48.548;2.704;2023-04-25T10:41:46;100829.81;;;18.95;50.66
74680;BME280;63211;48.548;2.704;2023-04-25T10:44:15;100832.09;;;18.98;50.33
74680;BME280;63211;48.548;2.704;2023-04-25T10:46:44;100843.22;;;18.97;50.56
74680;BME280;63211;48.548;2.704;2023-04-25T10:49:28;100828.00;;;18.89;50.46
74680;BME280;63211;48.548;2.704;2023-04-25T10:52:10;100834.66;;;18.93;50.81
74680;BME280;63211;48.548;2.704;2023-04-25T10:54:40;100841.88;;;18.87;50.40
74680;BME280;63211;48.548;2.704;2023-04-25T10:57:07;100840.34;;;18.92;50.53
74680;BME280;63211;48.548;2.704;2023-04-25T10:59:35;100845.00;;;18.91;50.55
74680;BME280;63211;48.548;2.704;2023-04-25T11:02:11;100835.13;;;18.90;50.53
74680;BME280;63211;48.548;2.704;2023-04-25T11:04:38;100841.88;;;18.87;50.67
74680;BME280;63211;48.548;2.704;2023-04-25T11:07:13;100839.38;;;18.86;50.69
74680;BME280;63211;48.548;2.704;2023-04-25T11:09:45;100843.53;;;18.88;50.61
74680;BME280;63211;48.548;2.704;2023-04-25T11:12:12;100826.41;;;18.81;50.75
74680;BME280;63211;48.548;2.704;2023-04-25T11:14:40;100836.41;;;18.87;50.44
74680;BME280;63211;48.548;2.704;2023-04-25T11:17:07;100839.38;;;18.86;50.84
74680;BME280;63211;48.548;2.704;2023-04-25T11:19:34;100845.88;;;18.85;50.74
74680;BME280;63211;48.548;2.704;2023-04-25T11:22:01;100845.28;;;18.83;50.69
74680;BME280;63211;48.548;2.704;2023-04-25T11:24:29;100842.75;;;18.81;50.85
74680;BME280;63211;48.548;2.704;2023-04-25T11:26:57;100844.44;;;18.82;50.84
74680;BME280;63211;48.548;2.704;2023-04-25T11:29:26;100849.88;;;18.82;50.49
74680;BME280;63211;48.548;2.704;2023-04-25T11:31:54;100849.06;;;18.82;50.77
74680;BME280;63211;48.548;2.704;2023-04-25T11:34:23;100858.06;;;18.82;50.71
74680;BME280;63211;48.548;2.704;2023-04-25T11:36:50;100853.69;;;18.81;50.51
74680;BME280;63211;48.548;2.704;2023-04-25T11:39:17;100840.69;;;18.77;50.87
74680;BME280;63211;48.548;2.704;2023-04-25T11:41:44;100826.91;;;18.72;51.16
74680;BME280;63211;48.548;2.704;2023-04-25T11:44:11;100845.50;;;18.81;51.00
74680;BME280;63211;48.548;2.704;2023-04-25T11:46:38;100848.00;;;18.83;51.26
74680;BME280;63211;48.548;2.704;2023-04-25T11:49:06;100848.53;;;18.92;50.92
74680;BME280;63211;48.548;2.704;2023-04-25T11:51:38;100846.63;;;18.92;51.00
74680;BME280;63211;48.548;2.704;2023-04-25T11:54:04;100849.97;;;18.94;50.76
74680;BME280;63211;48.548;2.704;2023-04-25T11:56:31;100850.56;;;18.96;50.76
74680;BME280;63211;48.548;2.704;2023-04-25T11:58:59;100840.13;;;18.93;51.03
74680;BME280;63211;48.548;2.704;2023-04-25T12:01:28;100844.69;;;18.99;50.91
74680;BME280;63211;48.548;2.704;2023-04-25T12:03:55;100849.91;;;19.01;50.92
74680;BME280;63211;48.548;2.704;2023-04-25T12:06:27;100859.69;;;19.08;50.91
74680;BME280;63211;48.548;2.704;2023-04-25T12:09:02;100845.91;;;19.03;51.01
74680;BME280;63211;48.548;2.704;2023-04-25T12:11:30;100852.13;;;19.10;50.68
74680;BME280;63211;48.548;2.704;2023-04-25T12:14:01;100862.22;;;19.10;50.72
74680;BME280;63211;48.548;2.704;2023-04-25T12:16:28;100853.19;;;19.09;50.86
74680;BME280;63211;48.548;2.704;2023-04-25T12:18:55;100855.44;;;19.12;50.68
74680;BME280;63211;48.548;2.704;2023-04-25T12:21:22;100852.97;;;19.11;50.78
74680;BME280;63211;48.548;2.704;2023-04-25T12:23:50;100851.91;;;19.12;50.67
74680;BME280;63211;48.548;2.704;2023-04-25T12:26:18;100849.31;;;19.17;50.99
74680;BME280;63211;48.548;2.704;2023-04-25T12:28:46;100848.47;;;19.16;50.65
74680;BME280;63211;48.548;2.704;2023-04-25T12:31:13;100836.81;;;19.09;50.69
74680;BME280;63211;48.548;2.704;2023-04-25T12:33:41;100837.41;;;19.11;50.62
74680;BME280;63211;48.548;2.704;2023-04-25T12:36:09;100854.75;;;19.17;50.80
74680;BME280;63211;48.548;2.704;2023-04-25T12:38:38;100858.31;;;19.17;50.61
74680;BME280;63211;48.548;2.704;2023-04-25T12:41:07;100856.03;;;19.14;50.71
74680;BME280;63211;48.548;2.704;2023-04-25T12:43:34;100868.63;;;19.15;50.83
74680;BME280;63211;48.548;2.704;2023-04-25T12:46:01;100868.63;;;19.15;50.72
74680;BME280;63211;48.548;2.704;2023-04-25T12:48:27;100861.44;;;19.21;50.51
74680;BME280;63211;48.548;2.704;2023-04-25T12:50:54;100865.84;;;19.22;50.75
74680;BME280;63211;48.548;2.704;2023-04-25T12:53:22;100867.97;;;19.20;50.90